createdAt,value
2018-09-07T00:01:55.980Z,96.93
2018-09-07T00:04:24.428Z,97.23
2018-09-07T00:06:52.851Z,96.69
2018-09-07T00:09:21.316Z,97.19
2018-09-07T00:11:49.779Z,96.93
2018-09-07T00:14:18.765Z,97.30
2018-09-07T00:16:47.177Z,97.38
2018-09-07T00:19:15.609Z,97.24
2018-09-07T00:21:44.024Z,97.11
2018-09-07T00:24:12.471Z,96.87
2018-09-07T00:26:40.912Z,97.69
2018-09-07T00:29:09.358Z,96.82
2018-09-07T00:31:37.740Z,96.72
2018-09-07T00:34:06.302Z,97.13
2018-09-07T00:36:35.054Z,96.82
2018-09-07T00:39:04.899Z,97.00
2018-09-07T00:41:33.323Z,97.52
2018-09-07T00:44:01.753Z,97.00
2018-09-07T00:46:30.189Z,96.70
2018-09-07T00:48:58.627Z,96.87
2018-09-07T00:51:27.070Z,96.83
2018-09-07T00:53:56.124Z,97.24
2018-09-07T00:56:24.564Z,96.82
2018-09-07T00:58:52.987Z,97.36
2018-09-07T01:01:21.397Z,96.88
2018-09-07T01:03:49.829Z,97.58
2018-09-07T01:06:18.280Z,97.04
2018-09-07T01:08:46.732Z,97.73
2018-09-07T01:11:15.181Z,97.56
2018-09-07T01:13:44.816Z,96.97
2018-09-07T01:16:13.264Z,97.50
2018-09-07T01:18:41.975Z,97.25
2018-09-07T01:21:10.407Z,97.17
2018-09-07T01:23:38.907Z,97.66
2018-09-07T01:26:07.437Z,97.26
2018-09-07T01:28:35.890Z,97.62
2018-09-07T01:31:04.331Z,97.50
2018-09-07T01:33:33.089Z,97.45
2018-09-07T01:36:01.729Z,96.90
2018-09-07T01:38:32.413Z,96.90
2018-09-07T01:41:00.830Z,97.71
2018-09-07T01:43:29.353Z,97.35
2018-09-07T01:45:57.809Z,97.77
2018-09-07T01:48:26.377Z,97.86
2018-09-07T01:50:54.804Z,97.60
2018-09-07T01:53:24.344Z,97.23
2018-09-07T01:55:52.838Z,96.80
2018-09-07T01:58:22.627Z,97.31
2018-09-07T02:00:51.117Z,97.74
2018-09-07T02:03:24.896Z,96.79
2018-09-07T02:05:53.774Z,96.88
2018-09-07T02:08:24.608Z,96.75
2018-09-07T02:10:54.938Z,96.80
2018-09-07T02:13:24.385Z,97.29
2018-09-07T02:15:52.853Z,96.75
2018-09-07T02:18:21.332Z,97.42
2018-09-07T02:20:49.821Z,96.95
2018-09-07T02:23:18.207Z,97.02
2018-09-07T02:25:46.629Z,97.60
2018-09-07T02:28:15.041Z,97.48
2018-09-07T02:30:44.172Z,97.72
2018-09-07T02:33:12.568Z,97.63
2018-09-07T02:35:41.001Z,96.91
2018-09-07T02:38:09.374Z,96.99
2018-09-07T02:40:37.790Z,96.70
2018-09-07T02:43:06.221Z,97.00
2018-09-07T02:45:34.649Z,96.69
2018-09-07T02:48:03.074Z,97.50
2018-09-07T02:50:31.529Z,96.82
2018-09-07T02:52:59.958Z,98.00
2018-09-07T02:55:28.341Z,97.71
2018-09-07T02:57:56.781Z,97.62
2018-09-07T03:00:25.209Z,97.33
2018-09-07T03:02:53.634Z,96.82
2018-09-07T03:05:22.056Z,97.14
2018-09-07T03:07:51.178Z,97.75
2018-09-07T03:10:19.589Z,97.49
2018-09-07T03:12:48.025Z,97.60
2018-09-07T03:15:16.409Z,97.22
2018-09-07T03:17:44.824Z,97.85
2018-09-07T03:20:13.252Z,97.08
2018-09-07T03:22:41.628Z,97.06
2018-09-07T03:25:10.669Z,96.98
2018-09-07T03:27:39.577Z,96.96
2018-09-07T03:30:08.018Z,97.19
2018-09-07T03:32:36.444Z,97.95
2018-09-07T03:35:04.919Z,97.17
2018-09-07T03:37:33.469Z,97.17
2018-09-07T03:40:02.046Z,97.18
2018-09-07T03:42:30.572Z,97.05
2018-09-07T03:44:59.241Z,97.72
2018-09-07T03:47:27.698Z,97.11
2018-09-07T03:49:56.113Z,97.09
2018-09-07T03:52:24.526Z,97.57
2018-09-07T03:54:52.936Z,96.97
2018-09-07T03:57:21.442Z,97.58
2018-09-07T03:59:49.851Z,96.97
2018-09-07T04:02:18.224Z,97.30
2018-09-07T04:04:46.693Z,97.18
2018-09-07T04:07:15.728Z,96.97
2018-09-07T04:09:45.051Z,96.98
2018-09-07T04:12:13.529Z,96.92
2018-09-07T04:14:41.957Z,97.67
2018-09-07T04:17:10.399Z,96.76
2018-09-07T04:19:38.791Z,97.38
2018-09-07T04:22:07.280Z,97.47
2018-09-07T04:24:35.724Z,97.06
2018-09-07T04:27:04.156Z,97.57
2018-09-07T04:29:32.549Z,96.92
2018-09-07T04:32:00.973Z,96.84
2018-09-07T04:34:29.384Z,97.57
2018-09-07T04:36:58.380Z,97.50
2018-09-07T04:39:27.233Z,96.78
2018-09-07T04:41:56.407Z,96.87
2018-09-07T04:44:24.918Z,97.65
2018-09-07T04:46:53.385Z,97.49
2018-09-07T04:49:21.864Z,97.59
2018-09-07T04:51:50.378Z,96.70
2018-09-07T04:54:18.830Z,96.68
2018-09-07T04:56:47.216Z,96.82
2018-09-07T04:59:15.752Z,97.34
2018-09-07T05:01:44.107Z,97.12
2018-09-07T05:04:12.561Z,96.28
2018-09-07T05:06:40.934Z,96.54
2018-09-07T05:09:09.787Z,96.87
2018-09-07T05:11:39.280Z,96.97
2018-09-07T05:14:07.767Z,97.06
2018-09-07T05:16:36.177Z,96.49
2018-09-07T05:19:04.691Z,96.47
2018-09-07T05:21:33.252Z,96.37
2018-09-07T05:24:01.862Z,97.03
2018-09-07T05:26:30.356Z,96.94
2018-09-07T05:28:58.758Z,96.97
2018-09-07T05:31:27.209Z,96.42
2018-09-07T05:33:55.646Z,97.11
2018-09-07T05:36:24.091Z,96.97
2018-09-07T05:38:52.512Z,96.56
2018-09-07T05:41:20.952Z,96.73
2018-09-07T05:43:49.967Z,96.72
2018-09-07T05:46:20.613Z,97.38
2018-09-07T05:48:48.949Z,96.65
2018-09-07T05:51:17.356Z,97.24
2018-09-07T05:53:45.797Z,96.65
2018-09-07T05:56:14.198Z,96.91
2018-09-07T05:58:42.638Z,97.44
2018-09-07T06:01:11.030Z,96.78
2018-09-07T06:03:39.528Z,96.76
2018-09-07T06:06:07.953Z,96.82
2018-09-07T06:08:36.437Z,97.37
2018-09-07T06:11:04.892Z,97.45
2018-09-07T06:13:35.545Z,96.67
2018-09-07T06:16:03.980Z,97.13
2018-09-07T06:18:32.406Z,96.65
2018-09-07T06:21:00.859Z,96.41
2018-09-07T06:23:29.307Z,96.48
2018-09-07T06:25:58.152Z,97.01
2018-09-07T06:28:26.581Z,95.83
2018-09-07T06:30:55.032Z,95.95
2018-09-07T06:33:23.496Z,95.83
2018-09-07T06:35:51.924Z,95.76
2018-09-07T06:38:20.348Z,95.79
2018-09-07T06:40:48.760Z,95.98
2018-09-07T06:43:17.204Z,96.67
2018-09-07T06:45:46.000Z,96.33
2018-09-07T06:48:14.438Z,96.30
2018-09-07T06:50:43.224Z,95.31
2018-09-07T06:53:13.041Z,95.49
2018-09-07T06:55:41.476Z,95.67
2018-09-07T06:58:09.897Z,95.59
2018-09-07T07:00:39.304Z,95.76
2018-09-07T07:03:08.302Z,95.93
2018-09-07T07:05:37.400Z,95.47
2018-09-07T07:08:05.862Z,95.25
2018-09-07T07:10:34.567Z,95.38
2018-09-07T07:13:03.038Z,95.34
2018-09-07T07:15:31.466Z,95.38
2018-09-07T07:17:59.947Z,95.23
2018-09-07T07:20:28.416Z,95.25
2018-09-07T07:22:57.069Z,94.23
2018-09-07T07:25:25.574Z,94.61
2018-09-07T07:27:54.098Z,94.77
2018-09-07T07:30:22.527Z,94.24
2018-09-07T07:32:51.008Z,94.20
2018-09-07T07:35:19.470Z,94.70
2018-09-07T07:37:47.901Z,94.23
2018-09-07T07:40:16.373Z,94.40
2018-09-07T07:42:44.793Z,93.86
2018-09-07T07:45:13.250Z,93.87
2018-09-07T07:47:41.836Z,94.58
2018-09-07T07:50:10.381Z,93.98
2018-09-07T07:52:40.032Z,94.27
2018-09-07T07:55:08.457Z,93.86
2018-09-07T07:57:36.843Z,92.22
2018-09-07T08:00:05.319Z,92.54
2018-09-07T08:02:33.765Z,92.14
2018-09-07T08:05:02.200Z,92.75
2018-09-07T08:07:30.879Z,92.53
2018-09-07T08:09:59.325Z,93.30
2018-09-07T08:12:27.755Z,92.87
2018-09-07T08:14:56.185Z,92.49
2018-09-07T08:17:24.660Z,92.69
2018-09-07T08:19:53.129Z,93.06
2018-09-07T08:22:21.547Z,93.28
2018-09-07T08:24:49.990Z,94.32
2018-09-07T08:27:18.495Z,94.20
2018-09-07T08:29:47.604Z,95.04
2018-09-07T08:32:16.069Z,94.99
2018-09-07T08:34:44.479Z,95.50
2018-09-07T08:37:12.885Z,96.01
2018-09-07T08:39:41.574Z,95.43
2018-09-07T08:42:10.323Z,96.07
2018-09-07T08:44:38.938Z,95.48
2018-09-07T08:47:07.402Z,95.68
2018-09-07T08:49:35.834Z,96.22
2018-09-07T08:52:04.292Z,96.18
2018-09-07T08:54:32.747Z,95.92
2018-09-07T08:57:01.103Z,96.26
2018-09-07T08:59:29.532Z,96.44
2018-09-07T09:01:57.967Z,96.15
2018-09-07T09:04:26.778Z,96.23
2018-09-07T09:06:55.233Z,96.23
2018-09-07T09:09:23.675Z,96.43
2018-09-07T09:11:52.054Z,95.18
2018-09-07T09:14:20.477Z,96.15
2018-09-07T09:16:48.888Z,95.46
2018-09-07T09:19:17.332Z,95.77
2018-09-07T09:21:45.815Z,95.03
2018-09-07T09:24:14.349Z,94.65
2018-09-07T09:26:42.676Z,94.83
2018-09-07T09:29:11.138Z,94.88
2018-09-07T09:31:39.853Z,94.66
2018-09-07T09:34:08.388Z,94.71
2018-09-07T09:36:37.640Z,94.50
2018-09-07T09:39:07.968Z,93.81
2018-09-07T09:41:36.480Z,93.16
2018-09-07T09:44:04.973Z,93.35
2018-09-07T09:46:33.709Z,93.70
2018-09-07T09:49:02.252Z,91.91
2018-09-07T09:51:30.716Z,91.41
2018-09-07T09:53:59.224Z,90.48
2018-09-07T09:56:27.665Z,91.76
2018-09-07T09:58:56.086Z,91.03
2018-09-07T10:01:30.691Z,90.52
2018-09-07T10:04:11.560Z,91.49
2018-09-07T10:06:40.344Z,87.91
2018-09-07T10:09:12.293Z,87.59
2018-09-07T10:11:40.943Z,87.59
2018-09-07T10:14:10.256Z,86.60
2018-09-07T10:16:40.309Z,86.47
2018-09-07T10:19:08.779Z,86.12
2018-09-07T10:21:37.237Z,85.48
2018-09-07T10:24:05.705Z,85.87
2018-09-07T10:26:34.224Z,83.17
2018-09-07T10:29:02.607Z,83.20
2018-09-07T10:31:31.136Z,82.33
2018-09-07T10:33:59.569Z,84.52
2018-09-07T10:36:27.945Z,86.04
2018-09-07T10:38:56.581Z,84.19
2018-09-07T10:41:25.570Z,82.29
2018-09-07T10:43:54.015Z,82.41
2018-09-07T10:46:22.529Z,82.62
2018-09-07T10:48:50.948Z,82.37
2018-09-07T10:51:19.361Z,84.74
2018-09-07T10:53:47.780Z,81.99
2018-09-07T10:56:16.168Z,84.10
2018-09-07T10:58:44.660Z,81.73
2018-09-07T11:01:13.137Z,81.86
2018-09-07T11:03:41.582Z,83.09
2018-09-07T11:06:10.054Z,84.57
2018-09-07T11:08:38.463Z,85.00
2018-09-07T11:11:06.997Z,84.19
2018-09-07T11:13:35.378Z,82.89
2018-09-07T11:16:03.799Z,82.44
2018-09-07T11:18:32.512Z,82.03
2018-09-07T11:21:01.901Z,81.43
2018-09-07T11:23:30.891Z,82.39
2018-09-07T11:25:59.377Z,80.83
2018-09-07T11:28:27.800Z,81.96
2018-09-07T11:30:56.193Z,83.24
2018-09-07T11:33:24.758Z,78.08
2018-09-07T11:35:53.157Z,81.41
2018-09-07T11:38:21.520Z,80.97
2018-09-07T11:40:49.950Z,81.42
2018-09-07T11:43:18.362Z,79.45
2018-09-07T11:45:47.524Z,82.11
2018-09-07T11:48:16.081Z,80.71
2018-09-07T11:50:45.097Z,81.31
2018-09-07T11:53:13.531Z,80.91
2018-09-07T11:55:41.929Z,80.01
2018-09-07T11:58:10.425Z,82.80
2018-09-07T12:00:38.848Z,81.96
2018-09-07T12:03:07.305Z,81.62
2018-09-07T12:05:36.355Z,81.33
2018-09-07T12:08:04.877Z,81.61
2018-09-07T12:10:33.330Z,80.46
2018-09-07T12:13:01.911Z,79.99
2018-09-07T12:15:30.212Z,78.90
2018-09-07T12:17:58.716Z,78.75
2018-09-07T12:20:27.116Z,78.24
2018-09-07T12:22:56.217Z,78.96
2018-09-07T12:25:24.749Z,78.46
2018-09-07T12:27:53.265Z,76.42
2018-09-07T12:30:21.738Z,77.11
2018-09-07T12:32:50.261Z,75.03
2018-09-07T12:35:22.036Z,75.38
2018-09-07T12:37:50.538Z,77.53
2018-09-07T12:40:19.069Z,73.15
2018-09-07T12:42:47.777Z,68.76
2018-09-07T12:45:16.805Z,72.22
2018-09-07T12:47:46.459Z,69.24
2018-09-07T12:50:15.183Z,70.98
2018-09-07T12:52:43.936Z,71.63
2018-09-07T12:55:12.909Z,66.69
2018-09-07T12:57:42.921Z,67.54
2018-09-07T13:00:12.107Z,66.76
2018-09-07T13:02:40.517Z,68.14
2018-09-07T13:05:09.027Z,65.40
2018-09-07T13:07:37.594Z,67.45
2018-09-07T13:10:06.113Z,66.63
2018-09-07T13:12:35.074Z,63.12
2018-09-07T13:15:04.780Z,63.82
2018-09-07T13:17:38.286Z,62.59
2018-09-07T13:20:06.916Z,62.41
2018-09-07T13:22:37.167Z,60.72
2018-09-07T13:25:05.649Z,60.11
2018-09-07T13:27:34.088Z,63.59
2018-09-07T13:30:02.481Z,61.24
2018-09-07T13:32:31.295Z,60.74
2018-09-07T13:34:59.680Z,60.64
2018-09-07T13:37:28.138Z,61.56
2018-09-07T13:39:56.601Z,58.88
2018-09-07T13:42:25.063Z,57.34
2018-09-07T13:44:54.068Z,58.45
2018-09-07T13:47:22.532Z,57.56
2018-09-07T13:49:50.941Z,55.35
2018-09-07T13:52:19.364Z,56.01
2018-09-07T13:54:47.851Z,57.90
2018-09-07T13:57:16.269Z,57.79
2018-09-07T13:59:44.724Z,56.17
2018-09-07T14:02:13.117Z,56.78
2018-09-07T14:04:41.552Z,53.99
2018-09-07T14:07:09.975Z,55.20
2018-09-07T14:09:38.413Z,54.69
2018-09-07T14:12:06.865Z,54.94
2018-09-07T14:14:35.298Z,54.17
2018-09-07T14:17:03.707Z,51.52
2018-09-07T14:19:32.263Z,53.63
2018-09-07T14:22:00.703Z,54.11
2018-09-07T14:24:29.134Z,54.51
2018-09-07T14:26:57.565Z,54.05
2018-09-07T14:29:26.035Z,53.94
2018-09-07T14:31:54.486Z,56.45
2018-09-07T14:34:22.888Z,57.96
2018-09-07T14:36:51.336Z,58.26
2018-09-07T14:39:19.770Z,57.29
2018-09-07T14:41:48.179Z,59.12
2018-09-07T14:44:16.569Z,55.12
2018-09-07T14:46:45.054Z,58.53
2018-09-07T14:49:13.491Z,54.03
2018-09-07T14:51:41.896Z,55.61
2018-09-07T14:54:10.360Z,52.91
2018-09-07T14:56:38.761Z,53.20
2018-09-07T14:59:08.155Z,52.16
2018-09-07T15:01:36.539Z,53.13
2018-09-07T15:04:04.971Z,56.94
2018-09-07T15:06:33.417Z,55.02
2018-09-07T15:09:01.969Z,52.18
2018-09-07T15:11:31.395Z,52.85
2018-09-07T15:13:59.910Z,53.65
2018-09-07T15:16:28.317Z,52.69
2018-09-07T15:18:56.765Z,53.70
2018-09-07T15:21:25.182Z,56.37
2018-09-07T15:23:53.628Z,56.17
2018-09-07T15:26:22.171Z,55.43
2018-09-07T15:28:50.606Z,56.01
2018-09-07T15:31:19.016Z,54.57
2018-09-07T15:33:47.453Z,54.29
2018-09-07T15:36:16.756Z,53.97
2018-09-07T15:38:45.551Z,53.05
2018-09-07T15:41:13.936Z,52.78
2018-09-07T15:43:42.438Z,54.26
2018-09-07T15:46:11.343Z,55.86
2018-09-07T15:48:39.945Z,56.94
2018-09-07T15:51:08.617Z,58.47
2018-09-07T15:53:37.192Z,58.54
2018-09-07T15:56:05.763Z,56.21
2018-09-07T15:58:34.239Z,56.88
2018-09-07T16:01:02.820Z,60.34
2018-09-07T16:03:31.323Z,55.78
2018-09-07T16:06:00.049Z,55.76
2018-09-07T16:08:28.469Z,55.43
2018-09-07T16:10:57.159Z,53.40
2018-09-07T16:13:25.631Z,54.35
2018-09-07T16:15:54.018Z,56.14
2018-09-07T16:18:22.461Z,56.90
2018-09-07T16:20:50.867Z,56.15
2018-09-07T16:23:19.313Z,54.96
2018-09-07T16:25:47.844Z,53.17
2018-09-07T16:28:16.296Z,54.34
2018-09-07T16:30:44.716Z,52.38
2018-09-07T16:33:13.204Z,55.16
2018-09-07T16:35:42.341Z,52.87
2018-09-07T16:38:11.360Z,52.48
2018-09-07T16:40:39.740Z,52.90
2018-09-07T16:43:08.943Z,52.79
2018-09-07T16:45:37.345Z,55.16
2018-09-07T16:48:05.838Z,55.95
2018-09-07T16:50:34.749Z,54.64
2018-09-07T16:53:03.195Z,55.26
2018-09-07T16:55:31.638Z,53.67
2018-09-07T16:58:00.101Z,53.22
2018-09-07T17:00:28.788Z,54.49
2018-09-07T17:02:57.277Z,52.25
2018-09-07T17:05:25.730Z,52.34
2018-09-07T17:07:54.174Z,51.34
2018-09-07T17:10:23.588Z,52.81
2018-09-07T17:12:52.089Z,54.21
2018-09-07T17:15:20.648Z,51.70
2018-09-07T17:17:49.052Z,53.02
2018-09-07T17:20:17.646Z,51.89
2018-09-07T17:22:46.102Z,54.03
2018-09-07T17:25:14.531Z,53.50
2018-09-07T17:27:43.010Z,53.58
2018-09-07T17:30:11.541Z,53.63
2018-09-07T17:32:40.940Z,54.29
2018-09-07T17:35:10.570Z,54.66
2018-09-07T17:37:39.116Z,55.32
2018-09-07T17:40:07.565Z,55.35
2018-09-07T17:42:36.138Z,55.53
2018-09-07T17:45:04.780Z,55.57
2018-09-07T17:47:33.221Z,54.61
2018-09-07T17:50:01.617Z,56.25
2018-09-07T17:52:30.641Z,56.00
2018-09-07T17:54:59.077Z,57.08
2018-09-07T17:57:27.483Z,55.46
2018-09-07T17:59:55.890Z,56.18
2018-09-07T18:02:24.341Z,57.60
2018-09-07T18:04:52.770Z,58.72
2018-09-07T18:07:21.168Z,57.94
2018-09-07T18:09:49.604Z,57.45
2018-09-07T18:12:18.074Z,58.55
2018-09-07T18:14:47.031Z,58.77
2018-09-07T18:17:15.491Z,57.81
2018-09-07T18:19:43.934Z,60.27
2018-09-07T18:22:12.380Z,60.54
2018-09-07T18:24:40.904Z,59.85
2018-09-07T18:27:09.323Z,60.72
2018-09-07T18:29:37.758Z,61.13
2018-09-07T18:32:06.236Z,61.38
2018-09-07T18:34:34.657Z,59.62
2018-09-07T18:37:03.240Z,59.99
2018-09-07T18:39:31.655Z,60.14
2018-09-07T18:42:00.097Z,61.21
2018-09-07T18:44:28.552Z,61.78
2018-09-07T18:46:57.009Z,63.23
2018-09-07T18:49:25.463Z,64.67
2018-09-07T18:51:54.007Z,63.60
2018-09-07T18:54:22.400Z,63.04
2018-09-07T18:56:50.855Z,66.08
2018-09-07T18:59:19.301Z,63.33
2018-09-07T19:01:47.736Z,64.87
2018-09-07T19:04:16.188Z,64.24
2018-09-07T19:06:44.586Z,65.56
2018-09-07T19:09:13.062Z,63.96
2018-09-07T19:11:41.553Z,65.84
2018-09-07T19:14:09.969Z,66.67
2018-09-07T19:16:39.366Z,66.60
2018-09-07T19:19:07.788Z,66.78
2018-09-07T19:21:37.511Z,69.12
2018-09-07T19:24:06.041Z,71.47
2018-09-07T19:26:34.500Z,72.35
2018-09-07T19:29:02.996Z,74.35
2018-09-07T19:31:32.378Z,74.94
2018-09-07T19:34:00.874Z,75.79
2018-09-07T19:36:29.492Z,75.88
2018-09-07T19:38:57.963Z,77.18
2018-09-07T19:41:26.528Z,77.27
2018-09-07T19:43:54.925Z,78.35
2018-09-07T19:46:23.458Z,77.96
2018-09-07T19:48:52.504Z,77.65
2018-09-07T19:51:22.382Z,78.55
2018-09-07T19:53:51.329Z,77.65
2018-09-07T19:56:19.780Z,77.91
2018-09-07T19:58:48.215Z,78.24
2018-09-07T20:01:16.674Z,78.55
2018-09-07T20:03:45.090Z,79.41
2018-09-07T20:06:13.632Z,79.83
2018-09-07T20:08:43.248Z,80.26
2018-09-07T20:11:11.679Z,80.78
2018-09-07T20:13:40.083Z,80.17
2018-09-07T20:16:08.496Z,80.74
2018-09-07T20:18:36.968Z,81.01
2018-09-07T20:21:05.626Z,80.93
2018-09-07T20:23:34.066Z,81.64
2018-09-07T20:26:02.617Z,82.34
2018-09-07T20:28:31.026Z,81.79
2018-09-07T20:31:00.132Z,82.18
2018-09-07T20:33:28.567Z,81.54
2018-09-07T20:35:57.065Z,83.14
2018-09-07T20:38:25.513Z,82.94
2018-09-07T20:40:54.123Z,83.43
2018-09-07T20:43:22.568Z,81.65
2018-09-07T20:45:51.101Z,82.87
2018-09-07T20:48:20.371Z,83.67
2018-09-07T20:50:48.860Z,84.03
2018-09-07T20:53:17.303Z,83.48
2018-09-07T20:55:45.721Z,84.34
2018-09-07T20:58:14.128Z,82.97
2018-09-07T21:00:45.294Z,84.00
2018-09-07T21:03:14.522Z,84.43
2018-09-07T21:05:42.940Z,83.65
2018-09-07T21:08:11.333Z,84.77
2018-09-07T21:10:40.024Z,84.37
2018-09-07T21:13:08.541Z,84.47
2018-09-07T21:15:36.958Z,84.93
2018-09-07T21:18:05.528Z,83.77
2018-09-07T21:20:33.990Z,84.30
2018-09-07T21:23:02.389Z,84.29
2018-09-07T21:25:30.855Z,84.96
2018-09-07T21:27:59.334Z,85.60
2018-09-07T21:30:27.758Z,85.73
2018-09-07T21:32:56.177Z,84.73
2018-09-07T21:35:24.587Z,85.58
2018-09-07T21:37:52.994Z,84.71
2018-09-07T21:40:21.388Z,85.88
2018-09-07T21:42:49.783Z,85.97
2018-09-07T21:45:18.194Z,84.64
2018-09-07T21:47:46.651Z,85.03
2018-09-07T21:50:15.063Z,84.03
2018-09-07T21:52:43.491Z,86.16
2018-09-07T21:55:11.878Z,86.04
2018-09-07T21:57:40.277Z,85.65
2018-09-07T22:00:09.412Z,86.24
2018-09-07T22:02:37.791Z,86.88
2018-09-07T22:05:06.399Z,86.02
2018-09-07T22:07:40.164Z,85.05
2018-09-07T22:10:08.597Z,86.29
2018-09-07T22:12:37.035Z,86.41
2018-09-07T22:15:05.523Z,86.74
2018-09-07T22:17:33.982Z,86.68
2018-09-07T22:20:03.156Z,86.26
2018-09-07T22:22:31.542Z,85.72
2018-09-07T22:24:59.928Z,85.00
2018-09-07T22:27:28.355Z,86.65
2018-09-07T22:29:56.828Z,86.14
2018-09-07T22:32:25.925Z,86.18
2018-09-07T22:34:54.425Z,85.69
2018-09-07T22:37:23.049Z,85.96
2018-09-07T22:39:51.477Z,86.42
2018-09-07T22:42:19.957Z,87.52
2018-09-07T22:44:48.349Z,87.32
2018-09-07T22:47:16.748Z,87.01
2018-09-07T22:49:45.160Z,86.70
2018-09-07T22:52:13.605Z,86.27
2018-09-07T22:54:42.533Z,86.03
2018-09-07T22:57:10.974Z,86.59
2018-09-07T22:59:39.482Z,87.01
2018-09-07T23:02:09.135Z,86.78
2018-09-07T23:04:37.538Z,88.10
2018-09-07T23:07:06.507Z,86.95
2018-09-07T23:09:34.938Z,85.97
2018-09-07T23:12:03.369Z,86.89
2018-09-07T23:14:31.801Z,86.82
2018-09-07T23:17:00.699Z,86.56
2018-09-07T23:19:29.789Z,86.70
2018-09-07T23:21:58.791Z,87.53
2018-09-07T23:24:28.012Z,88.01
2018-09-07T23:26:56.407Z,87.00
2018-09-07T23:29:24.835Z,87.36
2018-09-07T23:31:53.285Z,88.44
2018-09-07T23:34:21.709Z,86.80
2018-09-07T23:36:50.123Z,87.09
2018-09-07T23:39:18.523Z,87.64
2018-09-07T23:41:46.968Z,87.78
2018-09-07T23:44:15.352Z,87.82
2018-09-07T23:46:43.785Z,87.26
2018-09-07T23:49:12.318Z,87.87
2018-09-07T23:51:41.022Z,87.79
2018-09-07T23:54:09.428Z,87.66
2018-09-07T23:56:37.829Z,88.25
2018-09-07T23:59:06.257Z,87.77
